Time;durP1;ratioP1;P1;durP2;ratioP2;P2;SDS_P1;SDS_P2;PMS_P1;PMS_P2;Temp;Humidity;BMP_temperature;BMP_pressure;BME280_temperature;BME280_humidity;BME280_pressure;Samples;Min_cycle;Max_cycle;Signal;HPM_P1;HPM_P2
2022/08/12 00:44:15;;;;;;;5.22;2.10;;;;;;;25.93;36.92;101843.44;4927779;28;99121;-68
2022/08/12 00:46:50;;;;;;;5.22;1.95;;;;;;;25.82;37.13;101843.47;4931873;28;96816;-67
2022/08/12 00:49:22;;;;;;;3.17;1.92;;;;;;;25.68;37.57;101835.63;4931533;28;97228;-66
2022/08/12 00:52:09;;;;;;;5.95;1.95;;;;;;;25.52;37.30;101838.69;4926687;28;99162;-67
2022/08/12 00:54:40;;;;;;;6.22;1.90;;;;;;;25.57;37.68;101844.63;4928629;28;98216;-67
2022/08/12 00:57:10;;;;;;;15.25;1.95;;;;;;;25.51;37.49;101847.78;4930354;28;96804;-67
2022/08/12 00:59:42;;;;;;;4.50;2.08;;;;;;;25.46;37.50;101839.19;4930167;28;96990;-66
2022/08/12 01:02:14;;;;;;;3.97;2.25;;;;;;;25.33;38.16;101844.75;4928148;28;100996;-67
2022/08/12 01:12:57;;;;;;;3.88;1.88;;;;;;;24.89;39.08;101840.13;4927405;28;97211;-67
2022/08/12 01:15:26;;;;;;;4.88;2.10;;;;;;;24.92;38.94;101848.03;4929346;28;98981;-66
2022/08/12 01:17:52;;;;;;;7.57;2.60;;;;;;;25.06;39.11;101843.38;4928343;28;96874;-67
2022/08/12 01:20:33;;;;;;;4.50;1.83;;;;;;;24.94;39.23;101848.72;4925959;28;97412;-67
2022/08/12 01:23:19;;;;;;;3.75;2.25;;;;;;;24.84;39.95;101841.44;4928482;28;99070;-67
2022/08/12 01:25:52;;;;;;;5.40;2.00;;;;;;;24.75;39.74;101847.56;4930397;28;98855;-66
2022/08/12 01:28:23;;;;;;;9.95;2.33;;;;;;;24.92;39.13;101847.16;4931666;28;96775;-66
2022/08/12 01:30:50;;;;;;;7.40;2.50;;;;;;;24.95;38.79;101839.66;4928621;28;97417;-66
2022/08/12 01:33:18;;;;;;;4.28;1.85;;;;;;;24.82;39.00;101838.00;4930039;28;99508;-67
2022/08/12 01:35:55;;;;;;;5.45;2.10;;;;;;;24.83;39.03;101848.69;4929579;28;99234;-66
2022/08/12 01:38:22;;;;;;;;;;;;;;;24.80;38.89;101846.25;4929177;28;97327;-66
2022/08/12 01:40:52;;;;;;;8.25;1.88;;;;;;;24.67;39.54;101844.59;4926150;28;97356;-65
2022/08/12 01:43:21;;;;;;;14.60;2.15;;;;;;;24.96;38.86;101844.06;4929112;28;98951;-66
2022/08/12 01:46:00;;;;;;;9.02;2.10;;;;;;;25.17;37.92;101835.25;4928428;28;99110;-67
2022/08/12 01:48:42;;;;;;;3.70;1.90;;;;;;;24.84;38.27;101842.31;4931161;28;97188;-66
2022/08/12 01:51:18;;;;;;;5.22;1.98;;;;;;;24.80;37.65;101839.97;4926407;28;97122;-67
2022/08/12 01:53:56;;;;;;;5.97;2.92;;;;;;;24.79;38.06;101838.25;4928564;28;99010;-66
2022/08/12 01:56:26;;;;;;;8.52;2.13;;;;;;;24.70;38.22;101847.91;4926854;28;98831;-66
2022/08/12 02:01:42;;;;;;;3.00;1.80;;;;;;;24.61;38.22;101843.25;4924962;28;96883;-66
2022/08/12 02:12:58;;;;;;;7.07;2.47;;;;;;;24.44;39.03;101839.13;4927319;28;97541;-66
2022/08/12 02:15:33;;;;;;;5.22;2.08;;;;;;;24.54;38.92;101836.59;4930593;28;99040;-66
2022/08/12 02:18:12;;;;;;;4.57;2.20;;;;;;;24.51;39.05;101834.97;4929239;28;99090;-66
2022/08/12 02:20:48;;;;;;;10.48;2.47;;;;;;;24.53;38.97;101841.13;4932228;28;97161;-66
2022/08/12 02:23:18;;;;;;;4.65;2.30;;;;;;;24.67;38.96;101834.66;4929577;28;96802;-67
2022/08/12 02:25:46;;;;;;;5.97;2.28;;;;;;;24.89;38.08;101831.13;4929830;28;99367;-68
2022/08/12 02:28:14;;;;;;;11.50;2.42;;;;;;;24.98;36.88;101838.56;4930642;28;102674;-66
2022/08/12 02:30:41;;;;;;;4.25;2.10;;;;;;;24.82;36.96;101838.00;4930039;28;97240;-66
2022/08/12 02:33:07;;;;;;;9.43;2.28;;;;;;;24.79;37.47;101833.72;4932756;28;97338;-66
2022/08/12 02:35:36;;;;;;;6.45;2.22;;;;;;;24.97;36.95;101835.00;4930965;28;98959;-66
2022/08/12 02:38:07;;;;;;;5.85;2.38;;;;;;;24.75;37.47;101836.75;4932896;28;98863;-66
2022/08/12 02:40:36;;;;;;;6.22;2.10;;;;;;;24.51;37.68;101836.81;4928716;28;98547;-67
2022/08/12 02:43:11;;;;;;;8.63;2.28;;;;;;;24.43;37.78;101834.69;4931967;28;97122;-66
2022/08/12 02:45:44;;;;;;;5.97;1.90;;;;;;;24.37;37.80;101828.91;4932499;28;99093;-66
2022/08/12 02:48:17;;;;;;;4.57;2.08;;;;;;;24.38;37.57;101836.88;4931995;28;99184;-67
2022/08/12 02:50:48;;;;;;;4.88;2.13;;;;;;;24.26;38.24;101836.97;4932473;28;97206;-67
2022/08/12 02:53:17;;;;;;;5.20;1.98;;;;;;;24.30;37.89;101831.19;4931933;28;97786;-66
2022/08/12 02:55:44;;;;;;;3.30;2.35;;;;;;;24.23;38.57;101829.94;4932550;28;99527;-66
2022/08/12 02:58:12;;;;;;;3.53;2.00;;;;;;;24.30;38.43;101825.81;4931375;28;99062;-67
2022/08/12 03:00:40;;;;;;;3.10;2.42;;;;;;;24.15;39.42;101826.94;4929258;28;98444;-66
2022/08/12 03:03:08;;;;;;;7.00;2.30;;;;;;;24.17;39.25;101830.38;4931144;28;96871;-66
2022/08/12 03:05:41;;;;;;;6.95;2.60;;;;;;;24.13;39.59;101831.59;4929022;28;99535;-66
2022/08/12 03:08:11;;;;;;;3.78;2.53;;;;;;;24.08;39.78;101831.09;4932583;28;99042;-66
2022/08/12 03:10:42;;;;;;;10.02;2.42;;;;;;;24.05;39.67;101836.72;4931240;28;96835;-66
2022/08/12 03:13:11;;;;;;;9.52;2.25;;;;;;;23.77;40.16;101838.75;4931426;28;96895;-65
2022/08/12 03:15:39;;;;;;;3.13;1.95;;;;;;;23.81;40.04;101844.81;4926090;28;98761;-66
2022/08/12 03:18:13;;;;;;;6.75;2.47;;;;;;;23.94;39.63;101837.50;4931723;28;99265;-67
2022/08/12 03:20:41;;;;;;;6.50;2.40;;;;;;;23.93;39.86;101843.03;4923276;28;97715;-67
2022/08/12 03:23:10;;;;;;;6.95;2.92;;;;;;;24.01;39.56;101844.19;4931017;28;98821;-67
2022/08/12 03:25:39;;;;;;;4.75;2.60;;;;;;;23.93;39.40;101843.88;4923912;28;99392;-67
2022/08/12 03:28:09;;;;;;;7.95;2.35;;;;;;;23.99;38.91;101840.72;4931861;28;99298;-67
2022/08/12 03:30:37;;;;;;;6.68;2.35;;;;;;;23.91;39.56;101851.22;4925828;28;97245;-67
2022/08/12 03:33:05;;;;;;;8.85;2.30;;;;;;;23.77;39.93;101848.69;4931037;28;97432;-67
2022/08/12 03:35:34;;;;;;;6.47;2.83;;;;;;;23.66;40.36;101846.78;4931715;28;99185;-67
2022/08/12 03:38:03;;;;;;;6.25;2.35;;;;;;;23.92;39.58;101838.59;4928558;28;99360;-67
2022/08/12 04:02:39;;;;;;;9.60;2.78;;;;;;;23.43;41.27;101851.09;4928857;28;97439;-67
2022/08/12 04:05:07;;;;;;;14.18;3.42;;;;;;;23.42;41.25;101853.94;4929879;28;97263;-67
2022/08/12 04:07:35;;;;;;;4.97;2.47;;;;;;;23.52;40.87;101856.84;4928441;28;98967;-67
2022/08/12 04:10:02;;;;;;;8.07;2.80;;;;;;;23.53;40.28;101856.75;4931456;28;99154;-67
2022/08/12 04:15:13;;;;;;;15.65;3.15;;;;;;;23.56;40.89;101861.94;4927072;28;97017;-67
2022/08/12 04:17:41;;;;;;;9.00;2.90;;;;;;;23.49;41.43;101865.16;4927833;28;99182;-67
2022/08/12 04:20:12;;;;;;;15.27;2.85;;;;;;;23.40;41.63;101856.72;4927158;28;98950;-67
2022/08/12 04:22:40;;;;;;;9.43;2.60;;;;;;;23.62;41.22;101863.31;4931752;28;96940;-66
2022/08/12 04:25:10;;;;;;;11.40;3.35;;;;;;;23.67;40.94;101864.69;4927370;28;96962;-67
2022/08/12 04:27:37;;;;;;;14.55;2.78;;;;;;;23.64;40.94;101866.75;4927321;28;99026;-67
2022/08/12 04:30:06;;;;;;;10.20;3.30;;;;;;;23.80;40.88;101865.53;4928597;28;99572;-66
2022/08/12 04:32:32;;;;;;;9.93;3.40;;;;;;;;;;4926089;28;96904;-67
2022/08/12 04:34:59;;;;;;;6.95;2.95;;;;;;;23.88;40.60;101864.97;4929051;28;96873;-66
2022/08/12 04:37:26;;;;;;;20.90;5.03;;;;;;;24.07;40.01;101868.03;4930858;28;99511;-66
2022/08/12 04:39:54;;;;;;;13.00;3.45;;;;;;;24.09;40.00;101865.22;4928975;28;98300;-66
2022/08/12 04:42:22;;;;;;;17.23;3.42;;;;;;;24.05;39.98;101869.97;4930181;28;98579;-66
2022/08/12 04:44:49;;;;;;;7.25;2.70;;;;;;;24.25;39.67;101864.94;4928513;28;96787;-66
2022/08/12 04:47:15;;;;;;;12.15;3.05;;;;;;;24.22;39.62;101863.31;4929085;28;99338;-66
2022/08/12 04:49:46;;;;;;;9.38;2.60;;;;;;;24.38;39.40;101860.34;4922569;28;99278;-68
2022/08/12 04:52:14;;;;;;;17.35;2.67;;;;;;;24.33;39.77;101867.94;4926106;28;98931;-66
2022/08/12 04:54:42;;;;;;;9.20;2.85;;;;;;;24.39;39.69;101865.63;4926494;28;97441;-66
2022/08/12 04:57:10;;;;;;;13.85;4.15;;;;;;;24.82;38.63;101868.59;4922795;28;99405;-67
2022/08/12 04:59:37;;;;;;;16.83;3.63;;;;;;;24.83;38.04;101867.63;4920512;28;98823;-67
2022/08/12 05:02:04;;;;;;;16.05;2.53;;;;;;;24.96;37.31;101860.31;4923281;28;98884;-66
2022/08/12 05:04:31;;;;;;;6.63;2.92;;;;;;;25.39;36.18;101865.88;4929512;28;97333;-66
2022/08/12 05:06:57;;;;;;;14.38;3.50;;;;;;;25.51;35.51;101864.03;4926891;28;99305;-66
2022/08/12 05:09:24;;;;;;;4.18;2.22;;;;;;;25.48;35.75;101863.41;4926599;28;99128;-66
2022/08/12 05:11:50;;;;;;;12.68;2.97;;;;;;;25.38;35.82;101860.59;4925369;28;98258;-66
2022/08/12 05:14:18;;;;;;;6.25;2.75;;;;;;;25.80;35.04;101861.69;4928007;28;96920;-69
2022/08/12 05:16:44;;;;;;;13.50;2.95;;;;;;;25.70;35.27;101864.28;4915474;28;99045;-66
2022/08/12 05:19:11;;;;;;;9.20;2.97;;;;;;;25.90;34.84;101853.66;4927111;28;99650;-67
2022/08/12 05:21:38;;;;;;;13.52;2.80;;;;;;;25.91;35.15;101858.09;4928509;28;98413;-66
2022/08/12 05:24:05;;;;;;;18.30;2.92;;;;;;;25.84;35.46;101865.88;4924497;28;96837;-66
2022/08/12 05:26:31;;;;;;;8.70;2.42;;;;;;;26.14;35.80;101865.16;4921561;28;98638;-67
2022/08/12 05:28:57;;;;;;;10.00;2.42;;;;;;;25.77;36.67;101857.41;4927991;28;98968;-66
2022/08/12 05:31:25;;;;;;;8.50;3.03;;;;;;;26.08;36.71;101862.97;4927128;28;99012;-68
2022/08/12 05:33:51;;;;;;;7.07;2.70;;;;;;;25.99;37.54;101861.03;4929071;28;97484;-68
2022/08/12 05:36:18;;;;;;;11.80;2.90;;;;;;;26.43;36.65;101869.06;4924839;28;99045;-68
2022/08/12 05:38:58;;;;;;;8.27;3.03;;;;;;;26.28;36.87;101869.47;4918771;28;98961;-67
2022/08/12 05:41:26;;;;;;;10.10;2.80;;;;;;;26.59;35.47;101876.72;4924451;28;98334;-67
2022/08/12 05:43:55;;;;;;;13.00;2.72;;;;;;;26.71;34.71;101877.53;4931498;28;97312;-67
2022/08/12 05:46:22;;;;;;;10.52;3.05;;;;;;;27.72;32.51;101876.72;4929935;28;99150;-67
2022/08/12 05:48:53;;;;;;;9.98;2.90;;;;;;;28.21;31.30;101875.00;4931653;28;99609;-68
2022/08/12 05:51:22;;;;;;;18.65;2.97;;;;;;;28.13;30.35;101870.22;4929655;28;96871;-66
2022/08/12 05:53:50;;;;;;;14.05;2.83;;;;;;;27.62;31.19;101883.13;4923645;28;97686;-66
2022/08/12 05:56:21;;;;;;;6.68;2.67;;;;;;;28.03;30.12;101874.78;4928244;28;98871;-66
2022/08/12 05:58:48;;;;;;;12.00;2.97;;;;;;;27.80;30.55;101877.88;4928821;28;101544;-66
2022/08/12 06:01:14;;;;;;;7.60;2.42;;;;;;;27.96;30.12;101876.31;4929717;28;96896;-67
2022/08/12 06:03:41;;;;;;;9.40;2.63;;;;;;;27.78;30.22;101883.44;4927121;28;97479;-67
2022/08/12 06:06:09;;;;;;;8.15;2.25;;;;;;;28.03;30.07;101882.06;4935180;28;99058;-66
2022/08/12 06:08:35;;;;;;;13.70;2.80;;;;;;;28.12;30.24;101879.38;4929399;28;99489;-67
2022/08/12 06:11:03;;;;;;;7.88;2.42;;;;;;;28.05;29.90;101891.81;4932465;28;96765;-66
2022/08/12 06:13:30;;;;;;;7.90;2.80;;;;;;;28.08;29.97;101887.97;4929211;28;98078;-66
2022/08/12 06:15:56;;;;;;;9.52;2.20;;;;;;;28.48;29.45;101890.59;4929424;28;98966;-67
2022/08/12 06:18:23;;;;;;;13.55;2.85;;;;;;;28.35;29.47;101896.31;4930357;28;99079;-70
2022/08/12 06:20:49;;;;;;;6.07;2.60;;;;;;;28.23;29.32;101882.97;4931588;28;96843;-67
2022/08/12 06:23:17;;;;;;;6.70;2.30;;;;;;;28.55;29.02;101889.03;4931285;28;97337;-69
2022/08/12 06:25:45;;;;;;;6.28;2.20;;;;;;;28.55;29.01;101889.03;4927778;28;99225;-67
2022/08/12 06:28:16;;;;;;;5.18;2.35;;;;;;;28.56;28.58;101888.00;4934303;28;98995;-67
2022/08/12 06:30:44;;;;;;;9.00;2.28;;;;;;;28.74;28.75;101901.75;4935208;28;96836;-66
2022/08/12 06:33:11;;;;;;;7.97;2.55;;;;;;;29.12;27.97;101896.28;4933263;28;97110;-67
2022/08/12 06:35:39;;;;;;;9.15;2.05;;;;;;;29.25;27.81;101893.25;4933991;28;98881;-68
2022/08/12 06:38:14;;;;;;;5.78;2.70;;;;;;;29.18;28.13;101890.25;4930439;28;102164;-67
2022/08/12 06:43:23;;;;;;;17.13;3.05;;;;;;;29.77;26.98;101896.34;4933300;28;97238;-67
2022/08/12 06:45:49;;;;;;;13.35;2.92;;;;;;;30.27;26.21;101899.50;4934332;28;99260;-67
2022/08/12 06:48:16;;;;;;;9.98;2.33;;;;;;;30.18;26.21;101890.41;4933184;28;99549;-68
2022/08/12 06:50:43;;;;;;;9.13;2.22;;;;;;;30.50;25.66;101892.63;4932503;28;96830;-68
2022/08/12 06:53:09;;;;;;;2.03;1.33;;;;;;;30.10;26.11;101882.13;4932525;28;97245;-67
2022/08/12 06:55:38;;;;;;;4.78;1.63;;;;;;;30.35;25.20;101885.97;4929511;28;99080;-66
2022/08/12 06:58:05;;;;;;;5.03;2.05;;;;;;;30.53;25.72;101885.97;4931163;28;98847;-67
2022/08/12 07:00:34;;;;;;;5.53;1.55;;;;;;;30.22;25.49;101888.22;4931667;28;97368;-68
2022/08/12 07:03:02;;;;;;;10.35;2.08;;;;;;;30.25;25.83;101880.59;4932611;28;97066;-66
2022/08/12 07:05:28;;;;;;;2.83;1.30;;;;;;;30.49;25.38;101886.31;4926852;28;97966;-67
2022/08/12 07:08:16;;;;;;;5.35;2.33;;;;;;;30.34;25.59;101879.66;4930525;28;98837;-68
2022/08/12 07:10:44;;;;;;;4.35;1.10;;;;;;;30.77;25.07;101886.22;4927563;28;96809;-67
2022/08/12 07:13:12;;;;;;;6.40;1.63;;;;;;;30.97;25.23;101885.00;4931484;28;97427;-68
2022/08/12 07:15:39;;;;;;;2.17;1.40;;;;;;;30.70;24.79;101885.97;4930039;28;99070;-67
2022/08/12 07:18:12;;;;;;;4.03;1.40;;;;;;;30.72;25.18;101883.09;4933857;28;98787;-67
2022/08/12 07:20:50;;;;;;;3.95;1.40;;;;;;;30.87;24.67;101881.50;4932177;28;96774;-67
2022/08/12 07:23:17;;;;;;;4.53;1.15;;;;;;;31.19;24.79;101887.22;4932311;28;96738;-67
2022/08/12 07:25:44;;;;;;;3.55;1.05;;;;;;;31.54;24.15;101885.34;4928953;28;99439;-67
2022/08/12 07:28:15;;;;;;;3.20;1.02;;;;;;;31.82;23.56;101886.03;4931005;28;99162;-66
2022/08/12 07:30:43;;;;;;;11.48;1.67;;;;;;;31.77;23.22;101891.97;4925920;28;97485;-66
2022/08/12 07:33:11;;;;;;;4.95;1.50;;;;;;;31.81;23.21;101896.09;4929567;28;96846;-66
2022/08/12 07:35:44;;;;;;;2.85;1.30;;;;;;;31.99;22.96;101895.97;4923714;28;98933;-66
2022/08/12 07:38:25;;;;;;;8.80;1.67;;;;;;;32.08;22.83;101897.72;4928565;28;99000;-66
2022/08/12 07:40:54;;;;;;;8.35;1.60;;;;;;;32.25;23.00;101898.63;4933854;28;97066;-66
2022/08/12 07:43:22;;;;;;;10.32;1.70;;;;;;;31.98;23.02;101900.59;4924365;28;97331;-68
2022/08/12 07:45:50;;;;;;;3.40;1.27;;;;;;;31.85;23.30;101897.47;4933716;28;99059;-68
2022/08/12 07:48:16;;;;;;;2.20;1.33;;;;;;;31.67;23.21;101896.72;4929464;28;98867;-67
2022/08/12 07:50:43;;;;;;;2.92;1.08;;;;;;;31.50;23.44;101898.50;4933559;28;97560;-67
2022/08/12 07:53:10;;;;;;;2.53;1.00;;;;;;;31.61;22.92;101894.66;4934239;28;96828;-67
2022/08/12 07:55:36;;;;;;;9.60;1.27;;;;;;;31.52;23.61;101896.44;4932583;28;99027;-68
2022/08/12 07:58:04;;;;;;;5.75;1.20;;;;;;;31.81;23.43;101896.09;4932427;28;99026;-68
2022/08/12 08:00:34;;;;;;;5.72;1.38;;;;;;;32.01;23.29;101889.34;4932300;28;97123;-67
2022/08/12 08:03:02;;;;;;;4.68;1.30;;;;;;;31.81;23.15;101901.56;4918179;28;97396;-67
2022/08/12 08:05:32;;;;;;;8.35;1.50;;;;;;;32.13;23.26;101887.13;4919819;28;98925;-67
2022/08/12 08:08:01;;;;;;;3.38;1.42;;;;;;;32.17;23.45;101894.00;4925630;28;102165;-67
2022/08/12 08:10:31;;;;;;;5.32;1.23;;;;;;;32.02;23.23;101896.53;4919874;28;96755;-68
2022/08/12 08:12:57;;;;;;;3.92;0.90;;;;;;;31.99;23.73;101888.63;4927371;28;96811;-68
2022/08/12 08:15:26;;;;;;;2.33;1.17;;;;;;;31.54;23.73;101899.00;4922382;28;99008;-67
2022/08/12 08:17:58;;;;;;;5.38;1.20;;;;;;;31.78;23.99;101890.94;4927420;28;97783;-67
2022/08/12 08:20:28;;;;;;;4.85;1.23;;;;;;;31.99;23.30;101887.78;4918523;28;96803;-67
2022/08/12 08:22:56;;;;;;;5.07;1.60;;;;;;;31.74;23.91;101884.13;4925004;28;96879;-67
2022/08/12 08:25:29;;;;;;;5.15;1.20;;;;;;;32.28;23.10;101882.78;4924259;28;99129;-68
2022/08/12 08:27:57;;;;;;;4.38;1.02;;;;;;;32.28;23.06;101868.22;4921106;28;98862;-68
2022/08/12 08:30:25;;;;;;;6.35;1.20;;;;;;;32.31;23.13;101873.34;4922864;28;96792;-66
2022/08/12 08:32:52;;;;;;;2.22;0.63;;;;;;;32.19;22.38;101869.22;4929720;28;97034;-70
2022/08/12 08:35:21;;;;;;;7.75;2.55;;;;;;;32.01;22.52;101883.88;4922215;28;98233;-67
2022/08/12 08:37:47;;;;;;;6.35;1.30;;;;;;;32.36;21.63;101879.19;4926750;28;99361;-67
2022/08/12 08:42:58;;;;;;;3.58;0.93;;;;;;;32.02;21.41;101869.19;4925590;28;96767;-67
2022/08/12 08:45:24;;;;;;;6.32;0.80;;;;;;;31.88;22.35;101885.38;4926598;28;99171;-68
2022/08/12 08:47:51;;;;;;;4.60;0.90;;;;;;;31.89;22.25;101879.75;4923962;28;98948;-67
2022/08/12 08:50:17;;;;;;;4.50;0.73;;;;;;;31.79;22.24;101878.16;4925671;28;96799;-67
2022/08/12 08:52:47;;;;;;;2.47;0.90;;;;;;;31.74;22.36;101886.84;4917993;28;97120;-68
2022/08/12 08:55:15;;;;;;;2.45;1.05;;;;;;;31.98;22.20;101873.25;4925335;28;99051;-67
2022/08/12 08:57:43;;;;;;;2.85;0.75;;;;;;;32.18;21.74;101873.00;4918672;28;99481;-67
2022/08/12 09:00:13;;;;;;;8.50;0.70;;;;;;;31.54;22.59;101875.28;4926185;28;97406;-67
2022/08/12 09:02:39;;;;;;;3.78;1.55;;;;;;;31.99;22.40;101863.19;4927224;28;98160;-70
2022/08/12 09:05:06;;;;;;;6.90;0.93;;;;;;;32.22;21.93;101868.91;4925067;28;99321;-67
2022/08/12 09:07:42;;;;;;;2.50;0.90;;;;;;;32.67;21.68;101863.84;4915358;28;100675;-67
2022/08/12 09:10:10;;;;;;;5.72;1.10;;;;;;;32.76;21.42;101862.78;4922744;28;97002;-67
2022/08/12 09:15:21;;;;;;;2.80;1.60;;;;;;;33.08;20.82;101869.28;4924227;28;97070;-66
2022/08/12 09:17:51;;;;;;;4.80;0.75;;;;;;;33.30;20.83;101862.22;4922089;28;98902;-68
2022/08/12 09:20:18;;;;;;;2.15;0.90;;;;;;;33.03;20.93;101863.44;4926429;28;96820;-68
2022/08/12 09:22:44;;;;;;;3.42;0.90;;;;;;;33.37;20.55;101863.22;4922805;28;97960;-67
2022/08/12 09:25:12;;;;;;;1.88;0.85;;;;;;;33.40;20.44;101863.72;4922944;28;99678;-67
2022/08/12 09:27:38;;;;;;;2.67;0.90;;;;;;;33.23;20.77;101853.84;4922520;28;99002;-67
2022/08/12 09:30:06;;;;;;;3.05;1.38;;;;;;;33.19;20.34;101852.50;4922510;28;96881;-67
2022/08/12 09:32:32;;;;;;;4.30;1.52;;;;;;;33.18;20.76;101848.88;4921136;28;97246;-67
2022/08/12 09:34:59;;;;;;;3.88;0.80;;;;;;;33.28;20.71;101853.34;4921874;28;99272;-67
2022/08/12 09:37:27;;;;;;;6.50;1.10;;;;;;;32.93;20.64;101857.31;4919688;28;99216;-66
2022/08/12 09:39:53;;;;;;;3.15;0.75;;;;;;;32.76;20.32;101862.78;4922469;28;96825;-66
2022/08/12 09:45:22;;;;;;;5.20;1.65;;;;;;;33.22;20.74;101849.38;4929287;28;97247;-66
2022/08/12 09:47:49;;;;;;;3.80;1.10;;;;;;;33.11;20.19;101839.63;4920355;28;98827;-66
2022/08/12 09:50:16;;;;;;;2.00;1.20;;;;;;;33.23;20.41;101842.88;4922233;28;97007;-66
2022/08/12 09:53:15;;;;;;;3.38;1.20;;;;;;;33.15;20.08;101840.13;4928325;28;97459;-66
2022/08/12 09:55:46;;;;;;;3.42;1.17;;;;;;;33.10;20.23;101834.34;4920191;28;101333;-66
2022/08/12 09:58:15;;;;;;;5.63;1.40;;;;;;;33.14;20.00;101839.31;4925885;28;99652;-66
2022/08/12 10:00:42;;;;;;;6.18;1.05;;;;;;;33.30;19.86;101832.06;4923958;28;96842;-67
2022/08/12 10:03:11;;;;;;;4.43;1.30;;;;;;;33.31;19.36;101828.31;4925152;28;97208;-69
2022/08/12 10:05:40;;;;;;;2.90;0.98;;;;;;;33.21;19.41;101820.31;4922322;28;99239;-66
2022/08/12 10:08:09;;;;;;;7.10;1.30;;;;;;;33.38;19.50;101819.22;4925148;28;98810;-66
2022/08/12 10:13:40;;;;;;;2.35;0.90;;;;;;;33.38;19.80;101813.72;4921433;28;97324;-66
2022/08/12 10:13:41;;;;;;;2.80;1.00;;;;;;;33.32;19.40;101810.84;4917052;28;96749;-67
2022/08/12 10:16:10;;;;;;;2.17;0.80;;;;;;;33.07;19.74;101816.38;4922391;28;101328;-66
2022/08/12 10:18:38;;;;;;;5.43;1.25;;;;;;;33.09;19.62;101807.97;4918297;28;98780;-67
2022/08/12 10:21:09;;;;;;;4.82;1.00;;;;;;;33.11;19.81;101800.44;4923514;28;96739;-67
2022/08/12 10:23:36;;;;;;;5.22;0.90;;;;;;;33.20;19.76;101802.19;4919054;28;97104;-66
2022/08/12 10:31:32;;;;;;;3.47;1.13;;;;;;;33.49;19.48;101805.13;4928415;28;96911;-67
2022/08/12 10:33:59;;;;;;;6.53;1.10;;;;;;;33.08;19.25;101795.34;4927575;28;96794;-66
2022/08/12 10:36:26;;;;;;;4.88;1.30;;;;;;;33.13;19.40;101796.50;4928021;28;101480;-67
2022/08/12 10:38:53;;;;;;;2.90;1.10;;;;;;;32.97;19.25;101799.28;4934913;28;98003;-66
2022/08/12 10:44:06;;;;;;;4.45;0.95;;;;;;;33.35;19.38;101792.16;4927014;28;97094;-67
2022/08/12 10:46:34;;;;;;;7.43;1.73;;;;;;;33.27;19.27;101784.00;4930456;28;97809;-67
2022/08/12 10:49:00;;;;;;;2.47;1.13;;;;;;;33.47;19.38;101777.06;4925780;28;97759;-67
2022/08/12 10:51:30;;;;;;;2.92;1.10;;;;;;;33.52;19.41;101776.50;4927062;28;97152;-66
2022/08/12 10:53:57;;;;;;;4.35;1.10;;;;;;;33.15;19.23;101778.00;4924424;28;96795;-66
2022/08/12 10:56:24;;;;;;;13.05;1.58;;;;;;;33.14;19.59;101770.00;4928089;28;100791;-68
2022/08/12 10:58:51;;;;;;;2.53;0.85;;;;;;;33.24;19.33;101773.38;4926896;28;97687;-67
2022/08/12 11:01:19;;;;;;;6.85;0.95;;;;;;;33.39;19.23;101768.03;4928956;28;97228;-67
2022/08/12 11:03:45;;;;;;;4.07;1.33;;;;;;;33.53;19.22;101762.66;4926269;28;97419;-66
2022/08/12 11:06:13;;;;;;;5.97;1.20;;;;;;;33.25;19.49;101764.16;4920351;28;99072;-67
2022/08/12 11:08:41;;;;;;;7.00;1.10;;;;;;;33.20;19.85;101763.84;4923017;28;100727;-66
2022/08/12 11:11:08;;;;;;;3.90;1.10;;;;;;;33.26;19.27;101756.78;4924367;28;97441;-68
2022/08/12 11:13:35;;;;;;;2.67;1.00;;;;;;;33.26;19.62;101759.53;4917070;28;97525;-67
2022/08/12 11:16:02;;;;;;;5.53;1.08;;;;;;;33.40;19.33;101754.16;4927088;28;99075;-67
2022/08/12 11:18:30;;;;;;;4.55;0.98;;;;;;;33.42;19.23;101763.03;4923061;28;100133;-67
2022/08/12 11:20:58;;;;;;;3.45;1.00;;;;;;;33.68;19.32;101753.63;4921230;28;96735;-66
2022/08/12 11:23:25;;;;;;;2.83;1.40;;;;;;;33.68;19.08;101765.44;4923694;28;96876;-67
2022/08/12 11:25:52;;;;;;;2.95;0.93;;;;;;;33.99;19.11;101754.50;4922506;28;98311;-67
2022/08/12 11:28:19;;;;;;;15.73;1.20;;;;;;;33.71;18.83;101758.78;4928434;28;100749;-67
2022/08/12 11:30:46;;;;;;;1.67;1.10;;;;;;;33.53;19.04;101750.81;4925497;28;96951;-67
2022/08/12 11:33:13;;;;;;;4.18;1.00;;;;;;;33.31;19.38;101747.00;4926929;28;97466;-67
2022/08/12 11:35:42;;;;;;;4.65;1.02;;;;;;;33.30;19.41;101744.44;4926489;28;99223;-67
2022/08/12 11:38:09;;;;;;;3.35;1.00;;;;;;;33.61;19.34;101740.66;4927201;28;97823;-67
2022/08/12 11:40:35;;;;;;;4.82;1.13;;;;;;;33.88;19.38;101738.44;4928227;28;97337;-67
2022/08/12 11:43:02;;;;;;;13.45;1.33;;;;;;;34.01;19.00;101745.03;4926217;28;97612;-67
2022/08/12 11:45:30;;;;;;;9.15;1.05;;;;;;;34.07;19.03;101743.44;4930421;28;101943;-67
2022/08/12 11:47:58;;;;;;;3.83;1.30;;;;;;;34.16;18.54;101733.25;4922713;28;99667;-67
2022/08/12 11:50:25;;;;;;;4.65;1.63;;;;;;;34.11;18.64;101738.44;4927530;28;97521;-66
2022/08/12 11:52:53;;;;;;;3.17;0.85;;;;;;;34.01;18.73;101733.19;4922610;28;97050;-66
2022/08/12 11:55:19;;;;;;;3.42;1.23;;;;;;;33.81;19.30;101727.34;4925323;28;99469;-67
2022/08/12 11:57:50;;;;;;;2.92;0.82;;;;;;;33.76;19.10;101729.78;4922033;28;98018;-67
2022/08/12 12:00:18;;;;;;;1.85;1.13;;;;;;;33.67;18.78;101719.06;4921336;28;96721;-68
2022/08/12 12:02:44;;;;;;;2.55;0.93;;;;;;;33.76;19.23;101716.09;4926419;28;97559;-68
2022/08/12 12:05:11;;;;;;;8.95;1.13;;;;;;;33.90;19.14;101730.91;4925558;28;99157;-67
2022/08/12 12:07:39;;;;;;;1.60;1.05;;;;;;;34.27;19.30;101733.69;4921590;28;98796;-67
2022/08/12 12:10:07;;;;;;;7.47;1.00;;;;;;;34.57;19.03;101722.78;4926993;28;97976;-67
2022/08/12 12:12:35;;;;;;;6.28;1.33;;;;;;;35.02;18.83;101717.13;4923003;28;97023;-67
2022/08/12 12:15:03;;;;;;;1.75;0.93;;;;;;;35.20;18.18;101713.97;4926870;28;98906;-67
2022/08/12 12:17:29;;;;;;;2.92;1.00;;;;;;;35.35;17.66;101716.72;4919513;28;98655;-67
2022/08/12 12:19:56;;;;;;;3.03;1.10;;;;;;;35.46;17.93;101716.22;4923182;28;97143;-68
2022/08/12 12:22:23;;;;;;;6.10;0.77;;;;;;;35.46;17.93;101711.56;4925192;28;97063;-67
2022/08/12 12:24:50;;;;;;;4.72;1.02;;;;;;;35.16;17.96;101720.91;4924647;28;98960;-67
2022/08/12 12:27:20;;;;;;;2.45;1.00;;;;;;;35.23;17.81;101723.75;4922609;28;100249;-67
2022/08/12 12:29:46;;;;;;;5.65;1.00;;;;;;;35.01;17.75;101718.16;4925854;28;96848;-68
2022/08/12 12:32:13;;;;;;;4.95;1.08;;;;;;;34.93;17.57;101709.16;4921813;28;97345;-68
2022/08/12 12:34:40;;;;;;;2.85;1.05;;;;;;;34.96;18.04;101701.41;4922868;28;97774;-68
2022/08/12 12:37:11;;;;;;;6.60;1.10;;;;;;;35.05;18.13;101713.97;4927426;28;98351;-68
2022/08/12 12:39:38;;;;;;;4.35;1.00;;;;;;;35.18;17.79;101714.16;4923575;28;97869;-67
2022/08/12 12:42:06;;;;;;;1.98;0.85;;;;;;;34.98;17.88;101702.09;4924576;28;97234;-67
2022/08/12 12:44:34;;;;;;;4.38;0.90;;;;;;;35.10;17.94;101705.19;4927029;28;98505;-67
2022/08/12 12:47:00;;;;;;;2.75;0.90;;;;;;;35.37;18.11;101688.00;4920434;28;102242;-66
2022/08/12 12:49:26;;;;;;;3.70;0.98;;;;;;;35.34;18.10;101693.03;4925447;28;97092;-67
2022/08/12 12:51:53;;;;;;;5.05;0.90;;;;;;;35.50;17.45;101690.06;4925483;28;96898;-66
2022/08/12 12:54:19;;;;;;;6.32;0.95;;;;;;;35.15;17.49;101694.47;4924572;28;98250;-67
2022/08/12 12:56:51;;;;;;;2.25;1.30;;;;;;;35.01;17.83;101698.94;4923744;28;99374;-67
2022/08/12 12:59:19;;;;;;;3.10;0.90;;;;;;;35.07;18.12;101694.56;4925868;28;97984;-66
2022/08/12 13:01:47;;;;;;;4.88;1.20;;;;;;;35.31;17.35;101694.28;4927839;28;97031;-66
2022/08/12 13:04:13;;;;;;;1.02;0.80;;;;;;;35.19;18.09;101701.25;4924452;28;99013;-66
2022/08/12 13:06:40;;;;;;;1.90;0.82;;;;;;;35.13;17.98;101688.31;4923156;28;98902;-67
2022/08/12 13:09:11;;;;;;;3.45;0.80;;;;;;;35.31;17.54;101686.03;4921928;28;97364;-68
2022/08/12 13:11:37;;;;;;;3.90;0.80;;;;;;;35.87;17.47;101689.81;4930725;28;96921;-67
2022/08/12 13:14:07;;;;;;;3.70;0.85;;;;;;;35.36;16.96;101679.97;4920570;28;100081;-68
2022/08/12 13:16:34;;;;;;;4.38;0.90;;;;;;;35.62;17.33;101683.00;4926600;28;101327;-67
2022/08/12 13:19:02;;;;;;;5.63;1.25;;;;;;;35.51;17.06;101686.25;4923011;28;97225;-66